Time;durP1;ratioP1;P1;durP2;ratioP2;P2;SDS_P1;SDS_P2;PMS_P1;PMS_P2;Temp;Humidity;BMP_temperature;BMP_pressure;BME280_temperature;BME280_humidity;BME280_pressure;Samples;Min_cycle;Max_cycle;Signal;HPM_P1;HPM_P2
2022/12/14 00:01:03;;;;;;;20.17;15.15;;;2.20;99.90;;;;;;1877658;75;21156;-86
2022/12/14 00:03:56;;;;;;;21.30;15.05;;;2.20;99.90;;;;;;1840819;76;21070;-86
2022/12/14 00:06:48;;;;;;;22.48;15.48;;;2.30;99.90;;;;;;1891920;75;21095;-86
2022/12/14 00:09:42;;;;;;;22.20;15.15;;;2.30;99.90;;;;;;1873064;75;21122;-86
2022/12/14 00:12:33;;;;;;;24.90;16.48;;;2.20;99.90;;;;;;1841524;77;21097;-87
2022/12/14 00:15:26;;;;;;;22.50;16.17;;;2.10;99.90;;;;;;1874835;75;21051;-86
2022/12/14 00:18:18;;;;;;;24.30;15.85;;;2.20;99.90;;;;;;1886531;73;21142;-86
2022/12/14 00:21:14;;;;;;;22.45;15.85;;;2.20;99.90;;;;;;1881673;75;21193;-86
2022/12/14 00:24:12;;;;;;;27.15;16.95;;;2.20;99.90;;;;;;1890396;75;21103;-86
2022/12/14 00:29:46;;;;;;;21.82;15.25;;;2.20;99.90;;;;;;1939250;72;22253;-87
2022/12/14 00:35:19;;;;;;;22.15;15.20;;;2.10;99.90;;;;;;1935469;72;22243;-86
2022/12/14 00:38:10;;;;;;;24.67;16.12;;;2.20;99.90;;;;;;1893409;75;21107;-86
2022/12/14 00:41:02;;;;;;;24.15;15.90;;;2.20;99.90;;;;;;1892136;75;21172;-87
2022/12/14 00:43:53;;;;;;;22.50;14.55;;;2.20;99.90;;;;;;1876605;75;21180;-87
2022/12/14 00:49:27;;;;;;;23.35;15.40;;;2.10;99.90;;;;;;1927491;72;22253;-86
2022/12/14 00:52:18;;;;;;;22.27;14.60;;;2.10;99.90;;;;;;1903652;75;21118;-86
2022/12/14 01:08:41;;;;;;;22.75;14.85;;;2.10;99.90;;;;;;1951815;72;22155;-87
2022/12/14 01:11:32;;;;;;;22.62;15.23;;;2.10;99.90;;;;;;1915891;73;21188;-87
2022/12/14 01:14:24;;;;;;;23.00;15.10;;;2.10;99.90;;;;;;1904455;75;21119;-86
2022/12/14 01:17:16;;;;;;;21.05;14.25;;;2.10;99.90;;;;;;1904454;73;21154;-86
2022/12/14 01:20:09;;;;;;;22.60;15.35;;;2.10;99.90;;;;;;1904509;75;21100;-86
2022/12/14 01:25:49;;;;;;;23.62;15.25;;;2.10;99.90;;;;;;1928330;72;22304;-87
2022/12/14 01:34:12;;;;;;;22.50;15.30;;;2.30;99.90;;;;;;1934185;72;22177;-87
2022/12/14 01:39:42;;;;;;;21.48;14.85;;;2.30;99.90;;;;;;1936741;72;22292;-87
2022/12/14 01:42:36;;;;;;;24.07;15.72;;;2.40;99.90;;;;;;1904552;75;21441;-86
2022/12/14 01:48:15;;;;;;;25.90;16.95;;;2.40;99.90;;;;;;1943716;72;22193;-87
2022/12/14 01:51:09;;;;;;;24.18;15.85;;;2.40;99.90;;;;;;1904551;75;21078;-86
2022/12/14 01:54:03;;;;;;;23.13;15.47;;;2.40;99.90;;;;;;1904696;74;21059;-86
2022/12/14 01:56:56;;;;;;;22.27;14.38;;;2.40;99.90;;;;;;1916813;73;21090;-88
2022/12/14 01:59:48;;;;;;;22.10;15.05;;;2.50;99.90;;;;;;1917722;74;21104;-86
2022/12/14 02:02:43;;;;;;;23.35;15.25;;;2.50;99.90;;;;;;1904207;74;21168;-86
2022/12/14 02:05:38;;;;;;;23.32;15.68;;;2.60;99.90;;;;;;1904572;75;21175;-86
2022/12/14 02:08:30;;;;;;;22.73;14.78;;;2.50;99.90;;;;;;1926298;73;21093;-86
2022/12/14 02:14:18;;;;;;;23.30;15.28;;;2.50;99.90;;;;;;1938445;72;22250;-87
2022/12/14 02:19:54;;;;;;;23.47;15.78;;;2.50;99.90;;;;;;1939042;72;22197;-87
2022/12/14 02:23:43;;;;;;;22.00;14.47;;;2.50;99.90;;;;;;1890706;75;21127;-87
2022/12/14 02:33:08;;;;;;;23.00;14.95;;;2.60;99.90;;;;;;1941114;72;22372;-86
2022/12/14 02:36:04;;;;;;;22.98;14.73;;;2.60;99.90;;;;;;1898506;75;21061;-86
2022/12/14 02:41:42;;;;;;;20.50;14.63;;;2.60;99.90;;;;;;1939540;72;22197;-87
2022/12/14 02:44:37;;;;;;;20.30;14.35;;;2.70;99.90;;;;;;1886304;75;21171;-86
2022/12/14 02:47:31;;;;;;;20.23;14.38;;;2.80;99.90;;;;;;1891668;73;21336;-87
2022/12/14 02:53:17;;;;;;;19.20;14.45;;;2.70;99.90;;;;;;1954366;72;22254;-87
2022/12/14 02:59:00;;;;;;;21.23;15.25;;;2.70;99.90;;;;;;1950723;72;22222;-86
2022/12/14 03:01:53;;;;;;;21.52;14.70;;;2.70;99.90;;;;;;1930097;73;21171;-87
2022/12/14 03:04:48;;;;;;;18.17;13.95;;;2.70;99.90;;;;;;1931945;73;21547;-86
2022/12/14 03:10:26;;;;;;;22.55;14.68;;;2.70;99.90;;;;;;1943102;72;22322;-87
2022/12/14 03:18:56;;;;;;;19.40;13.60;;;2.80;99.90;;;;;;1922324;72;20198;-87
2022/12/14 03:21:52;;;;;;;21.27;14.03;;;2.80;99.90;;;;;;1896765;73;21655;-87
2022/12/14 03:27:36;;;;;;;18.70;13.58;;;2.80;99.90;;;;;;1946686;72;22177;-86
2022/12/14 03:33:11;;;;;;;18.40;13.65;;;2.90;99.90;;;;;;1939346;72;22198;-87
2022/12/14 03:38:53;;;;;;;18.75;13.13;;;2.80;99.90;;;;;;1941423;72;22166;-87
2022/12/14 03:41:48;;;;;;;17.73;12.65;;;2.90;99.90;;;;;;1900547;75;21130;-85
2022/12/14 03:44:43;;;;;;;19.45;12.60;;;2.90;99.90;;;;;;1891631;75;21156;-86
2022/12/14 03:47:52;;;;;;;18.62;13.60;;;3.00;99.90;;;;;;1901319;73;21115;-87
2022/12/14 03:53:37;;;;;;;19.23;12.70;;;2.90;99.90;;;;;;1949856;72;22174;-87
2022/12/14 03:56:32;;;;;;;16.73;12.30;;;3.00;99.90;;;;;;1887887;75;21169;-88
2022/12/14 03:59:27;;;;;;;18.52;12.75;;;3.10;99.90;;;;;;1877651;75;21139;-87
2022/12/14 04:02:22;;;;;;;19.02;12.65;;;3.10;99.90;;;;;;1900949;75;21115;-87
2022/12/14 04:08:02;;;;;;;18.80;13.15;;;3.10;99.90;;;;;;1954465;72;22246;-87
2022/12/14 04:20:33;;;;;;;18.23;13.00;;;3.00;99.90;;;;;;1904702;75;21147;-87
2022/12/14 04:26:42;;;;;;;22.55;14.50;;;3.00;99.90;;;;;;1911379;74;21200;-87
2022/12/14 04:35:28;;;;;;;20.08;13.78;;;2.80;99.90;;;;;;1925177;72;22237;-87
2022/12/14 04:38:23;;;;;;;20.68;14.68;;;2.80;99.90;;;;;;1887438;75;21169;-87
2022/12/14 04:43:56;;;;;;;20.65;14.78;;;2.80;99.90;;;;;;1952160;72;22201;-87
2022/12/14 04:46:51;;;;;;;20.92;14.45;;;2.80;99.90;;;;;;1913323;74;21115;-88
2022/12/14 04:49:47;;;;;;;21.10;14.03;;;2.90;99.90;;;;;;1937927;73;21125;-87
2022/12/14 04:52:42;;;;;;;19.05;13.20;;;2.90;99.90;;;;;;1908700;74;21113;-87
2022/12/14 04:58:22;;;;;;;22.65;18.42;;;2.80;99.90;;;;;;1914271;72;28156;-87
2022/12/14 05:04:16;;;;;;;20.95;14.85;;;3.00;99.90;;;;;;1939425;72;22240;-87
2022/12/14 05:09:50;;;;;;;19.52;14.20;;;2.90;99.90;;;;;;1944918;72;22159;-87
2022/12/14 05:12:45;;;;;;;18.57;13.80;;;2.90;99.90;;;;;;1883995;75;21052;-85
2022/12/14 05:15:42;;;;;;;19.70;13.78;;;2.90;99.90;;;;;;1898957;75;21075;-86
2022/12/14 05:18:35;;;;;;;18.65;13.90;;;2.90;99.90;;;;;;1896489;73;21219;-86
2022/12/14 05:24:08;;;;;;;18.55;12.37;;;2.90;99.90;;;;;;1945278;72;22249;-85
2022/12/14 05:27:00;;;;;;;19.10;13.90;;;2.90;99.90;;;;;;1899745;75;21192;-86
2022/12/14 05:29:52;;;;;;;17.85;13.70;;;2.90;99.90;;;;;;1881743;75;21621;-86
2022/12/14 05:32:43;;;;;;;19.05;13.20;;;3.00;99.90;;;;;;1889816;75;21628;-86
2022/12/14 05:35:35;;;;;;;19.12;13.32;;;3.00;99.90;;;;;;1873255;75;21143;-86
2022/12/14 05:38:27;;;;;;;19.07;13.68;;;3.00;99.90;;;;;;1889633;75;21201;-86
2022/12/14 05:41:19;;;;;;;19.98;13.18;;;3.00;99.90;;;;;;1884177;75;21099;-87
2022/12/14 05:44:11;;;;;;;18.02;13.10;;;3.00;99.90;;;;;;1893928;75;21059;-87
2022/12/14 05:47:06;;;;;;;17.60;12.05;;;3.00;99.90;;;;;;1885520;73;21102;-87
2022/12/14 05:49:58;;;;;;;19.52;13.00;;;2.90;99.90;;;;;;1885326;73;21176;-87
2022/12/14 05:52:52;;;;;;;18.70;13.28;;;2.90;99.90;;;;;;1879889;75;21185;-86
2022/12/14 05:55:48;;;;;;;18.15;13.32;;;3.00;99.90;;;;;;1894850;75;21138;-86
2022/12/14 05:58:40;;;;;;;18.32;13.48;;;3.00;99.90;;;;;;1887385;75;21121;-87
2022/12/14 06:01:32;;;;;;;18.02;13.18;;;2.90;99.90;;;;;;1874664;75;21119;-87
2022/12/14 06:04:23;;;;;;;19.92;13.50;;;2.90;99.90;;;;;;1893499;75;21159;-87
2022/12/14 06:07:15;;;;;;;21.27;14.18;;;2.90;99.90;;;;;;1897034;75;21152;-86
2022/12/14 06:10:07;;;;;;;18.67;13.18;;;3.00;99.90;;;;;;1891626;73;21083;-87
2022/12/14 06:12:59;;;;;;;21.68;13.53;;;3.00;99.90;;;;;;1876442;75;21086;-87
2022/12/14 06:15:51;;;;;;;18.52;13.03;;;2.90;99.90;;;;;;1874405;75;21105;-87
2022/12/14 06:18:48;;;;;;;19.92;13.05;;;2.90;99.90;;;;;;1883178;75;21161;-88
2022/12/14 06:21:42;;;;;;;18.98;13.40;;;3.00;99.90;;;;;;1886749;75;21099;-87
2022/12/14 06:24:35;;;;;;;20.00;13.95;;;3.10;99.90;;;;;;1898628;75;21192;-88
2022/12/14 06:27:27;;;;;;;20.50;13.93;;;3.10;99.90;;;;;;1897400;75;21099;-88
2022/12/14 06:30:19;;;;;;;20.37;13.38;;;3.10;99.90;;;;;;1875891;75;21106;-88
2022/12/14 06:33:11;;;;;;;19.92;12.47;;;3.10;99.90;;;;;;1871885;75;21165;-88
2022/12/14 06:36:06;;;;;;;20.10;13.65;;;3.10;99.90;;;;;;1885008;75;21232;-87
2022/12/14 06:38:59;;;;;;;18.92;13.28;;;3.10;99.90;;;;;;1881864;75;21188;-88
2022/12/14 06:41:52;;;;;;;19.17;13.10;;;3.10;99.90;;;;;;1892961;75;21156;-87
2022/12/14 06:44:43;;;;;;;19.02;12.88;;;3.10;99.90;;;;;;1871407;75;21138;-87
2022/12/14 06:47:35;;;;;;;19.75;12.68;;;3.10;99.90;;;;;;1871943;75;21186;-87
2022/12/14 06:50:27;;;;;;;20.23;13.48;;;3.10;99.90;;;;;;1891895;75;21096;-92
2022/12/14 06:56:15;;;;;;;20.48;13.58;;;3.20;99.90;;;;;;1947362;72;22243;-93
2022/12/14 06:59:09;;;;;;;20.40;13.88;;;3.20;99.90;;;;;;1916790;75;21113;-92
2022/12/14 07:04:41;;;;;;;18.37;12.90;;;3.10;99.90;;;;;;1965155;72;22244;-92
2022/12/14 07:07:40;;;;;;;16.75;12.47;;;3.10;99.90;;;;;;1896158;75;21099;-92
2022/12/14 07:13:24;;;;;;;21.35;12.88;;;3.10;99.90;;;;;;1948707;72;22228;-92
2022/12/14 07:16:20;;;;;;;18.87;12.85;;;3.10;99.90;;;;;;1880652;76;21099;-92
2022/12/14 07:19:13;;;;;;;18.15;12.47;;;3.10;99.90;;;;;;1918176;75;21172;-91
2022/12/14 07:22:05;;;;;;;18.45;12.75;;;3.20;99.90;;;;;;1933502;73;21066;-92
2022/12/14 07:24:57;;;;;;;18.32;12.47;;;3.20;99.90;;;;;;1917381;75;21055;-92
2022/12/14 07:27:52;;;;;;;18.73;12.43;;;3.30;99.90;;;;;;1917878;73;21133;-91
2022/12/14 07:30:44;;;;;;;18.10;12.82;;;3.30;99.90;;;;;;1926543;73;21153;-91
2022/12/14 07:33:38;;;;;;;16.90;12.33;;;3.40;99.90;;;;;;1921940;73;21349;-92
2022/12/14 07:39:14;;;;;;;17.77;13.60;;;3.50;99.90;;;;;;1958259;72;23213;-92
2022/12/14 07:42:05;;;;;;;19.90;12.93;;;3.40;99.90;;;;;;1894080;75;21110;-90
2022/12/14 07:44:59;;;;;;;20.10;13.45;;;3.40;99.90;;;;;;1876023;75;21078;-93
2022/12/14 07:47:50;;;;;;;18.87;13.00;;;3.40;99.90;;;;;;1915280;75;21119;-91
2022/12/14 07:50:41;;;;;;;17.82;12.78;;;3.40;99.90;;;;;;1903652;75;21145;-93
2022/12/14 07:53:33;;;;;;;17.35;13.22;;;3.30;99.90;;;;;;1888600;75;21163;-92
2022/12/14 07:56:27;;;;;;;18.80;12.60;;;3.40;99.90;;;;;;1899002;75;21043;-93
2022/12/14 07:59:22;;;;;;;19.37;13.40;;;3.40;99.90;;;;;;1894939;75;21134;-91
2022/12/14 08:02:22;;;;;;;19.90;13.90;;;3.40;99.90;;;;;;1885770;75;21045;-91
2022/12/14 08:05:16;;;;;;;19.73;14.43;;;3.40;99.90;;;;;;1898045;75;21098;-93
2022/12/14 08:08:08;;;;;;;20.10;14.25;;;3.40;99.90;;;;;;1890072;75;21129;-91
2022/12/14 08:11:01;;;;;;;22.48;15.10;;;3.40;99.90;;;;;;1896925;75;21596;-93
2022/12/14 08:13:55;;;;;;;20.57;13.30;;;3.40;99.90;;;;;;1905105;75;21051;-92
2022/12/14 08:16:48;;;;;;;18.55;13.45;;;3.50;99.90;;;;;;1905109;75;21191;-91
2022/12/14 08:19:40;;;;;;;19.30;13.83;;;3.50;99.90;;;;;;1884819;75;21110;-92
2022/12/14 08:25:13;;;;;;;22.32;14.65;;;3.50;99.90;;;;;;1941530;72;22248;-92
2022/12/14 08:28:05;;;;;;;21.48;14.18;;;3.70;99.90;;;;;;1888456;75;21163;-91
2022/12/14 08:34:41;;;;;;;19.12;13.88;;;3.70;99.90;;;;;;1990779;71;22272;-90
2022/12/14 08:37:32;;;;;;;18.02;13.22;;;3.80;99.90;;;;;;1954943;73;21070;-91
2022/12/14 08:40:24;;;;;;;17.85;13.05;;;3.90;99.90;;;;;;2032249;70;21605;-90
2022/12/14 08:43:15;;;;;;;19.48;13.28;;;4.00;99.90;;;;;;2034549;70;21090;-90
2022/12/14 08:49:55;;;;;;;21.52;13.62;;;4.00;99.90;;;;;;1980644;71;22237;-91
2022/12/14 08:52:49;;;;;;;20.50;14.38;;;4.00;99.90;;;;;;1935897;73;21188;-91
2022/12/14 08:55:41;;;;;;;20.08;14.35;;;4.00;99.90;;;;;;2010489;70;21166;-90
2022/12/14 08:58:35;;;;;;;21.90;14.93;;;4.00;99.90;;;;;;1995875;70;21072;-90
2022/12/14 09:01:29;;;;;;;18.48;13.60;;;4.10;99.90;;;;;;1998960;70;21055;-90
2022/12/14 09:04:23;;;;;;;17.98;13.03;;;4.10;99.90;;;;;;2005611;70;21105;-90
2022/12/14 09:07:15;;;;;;;15.43;11.48;;;4.10;99.90;;;;;;2019115;70;21138;-92
2022/12/14 09:12:51;;;;;;;19.55;13.40;;;4.20;99.90;;;;;;1953305;72;22218;-91
2022/12/14 09:15:43;;;;;;;20.10;13.20;;;4.20;99.90;;;;;;1898343;75;21228;-90
2022/12/14 09:18:35;;;;;;;19.27;12.60;;;4.10;99.90;;;;;;1902321;75;21105;-90
2022/12/14 09:21:27;;;;;;;22.52;12.90;;;3.90;99.90;;;;;;1907828;75;21152;-90
2022/12/14 09:24:20;;;;;;;18.00;12.07;;;3.80;99.90;;;;;;1884665;75;21135;-90
2022/12/14 09:27:11;;;;;;;21.87;13.05;;;3.80;99.90;;;;;;1915443;75;21090;-92
2022/12/14 09:30:03;;;;;;;17.87;12.70;;;3.80;99.90;;;;;;1891498;75;21129;-91
2022/12/14 09:32:55;;;;;;;17.02;12.63;;;3.90;99.90;;;;;;1899544;75;21095;-91
2022/12/14 09:35:47;;;;;;;23.32;14.23;;;3.90;99.90;;;;;;1893935;75;21113;-91
2022/12/14 09:38:39;;;;;;;19.55;13.83;;;4.00;99.90;;;;;;1886194;75;21103;-91
2022/12/14 09:41:43;;;;;;;19.00;13.53;;;4.10;99.90;;;;;;1898015;75;21181;-90
2022/12/14 09:44:45;;;;;;;17.87;12.35;;;4.30;99.90;;;;;;1919536;75;21074;-90
2022/12/14 09:51:38;;;;;;;18.20;13.22;;;4.20;99.90;;;;;;1979252;71;22177;-91
2022/12/14 09:54:35;;;;;;;19.55;12.95;;;4.20;99.90;;;;;;1987472;72;21046;-90
2022/12/14 09:57:32;;;;;;;18.65;12.03;;;4.20;99.90;;;;;;2031642;70;21556;-90
2022/12/14 10:03:22;;;;;;;14.15;11.33;;;4.20;99.90;;;;;;1933482;72;22218;-92
2022/12/14 10:06:30;;;;;;;15.75;10.48;;;4.30;99.90;;;;;;1883272;74;21152;-89
2022/12/14 10:12:55;;;;;;;15.98;11.35;;;4.50;99.90;;;;;;1952497;72;22211;-90
2022/12/14 10:19:17;;;;;;;16.87;11.65;;;4.70;99.90;;;;;;1933180;72;22769;-91
2022/12/14 10:29:06;;;;;;;18.87;13.80;;;4.70;99.90;;;;;;1937092;72;23125;-89
2022/12/14 10:32:10;;;;;;;17.65;13.05;;;4.70;99.90;;;;;;1895334;75;21182;-88
2022/12/14 10:35:15;;;;;;;18.07;13.45;;;4.60;99.90;;;;;;1883725;75;21225;-88
2022/12/14 10:38:11;;;;;;;19.87;13.88;;;4.60;99.90;;;;;;1880899;75;21208;-87
2022/12/14 10:41:06;;;;;;;20.15;13.03;;;4.60;99.90;;;;;;1882179;75;21052;-87
2022/12/14 10:44:01;;;;;;;18.23;12.85;;;4.60;99.90;;;;;;1891211;75;21177;-88
2022/12/14 10:49:42;;;;;;;21.75;13.80;;;4.70;99.90;;;;;;1944712;72;22543;-88
2022/12/14 10:52:40;;;;;;;19.23;13.15;;;4.80;99.90;;;;;;1904957;75;21567;-87
2022/12/14 10:55:35;;;;;;;18.17;13.40;;;4.80;99.90;;;;;;1884517;75;21122;-88
2022/12/14 10:58:26;;;;;;;15.45;11.57;;;4.90;99.90;;;;;;1898646;75;21171;-87
2022/12/14 11:01:20;;;;;;;15.93;11.80;;;5.00;99.90;;;;;;1897515;75;21135;-88
2022/12/14 11:07:09;;;;;;;20.12;12.68;;;5.20;99.90;;;;;;1966639;72;20237;-88
2022/12/14 11:13:04;;;;;;;16.57;12.60;;;5.30;99.90;;;;;;1961610;72;22224;-88
2022/12/14 11:18:35;;;;;;;19.55;14.30;;;5.40;99.90;;;;;;1944277;72;22211;-88
2022/12/14 11:21:32;;;;;;;20.90;14.98;;;5.50;99.90;;;;;;1934642;73;21210;-88
2022/12/14 11:24:27;;;;;;;21.87;14.73;;;5.50;99.90;;;;;;1917110;75;21110;-88
2022/12/14 11:27:21;;;;;;;20.17;14.50;;;5.60;99.90;;;;;;1919589;73;21143;-88
2022/12/14 11:33:00;;;;;;;20.37;14.93;;;5.70;99.90;;;;;;1949666;72;22189;-88
2022/12/14 11:35:54;;;;;;;25.92;16.67;;;5.70;99.90;;;;;;1919912;73;21058;-88
2022/12/14 11:38:55;;;;;;;21.55;15.95;;;5.70;99.90;;;;;;1930605;73;21109;-87
2022/12/14 11:41:49;;;;;;;19.62;14.33;;;5.70;99.90;;;;;;1919824;73;21113;-88
2022/12/14 11:44:41;;;;;;;21.52;14.58;;;5.60;99.90;;;;;;1921663;73;21073;-88
2022/12/14 11:47:32;;;;;;;23.42;15.68;;;5.60;99.90;;;;;;1917084;75;21062;-88
2022/12/14 11:53:15;;;;;;;20.90;15.43;;;5.50;99.90;;;;;;1935499;72;22241;-89
2022/12/14 11:56:10;;;;;;;23.62;15.53;;;5.40;99.90;;;;;;1907182;74;21046;-88
2022/12/14 11:59:02;;;;;;;23.57;15.68;;;5.40;99.90;;;;;;1909846;74;21118;-88
2022/12/14 12:04:38;;;;;;;25.00;16.55;;;5.40;99.90;;;;;;1935184;72;22177;-89
2022/12/14 12:24:16;;;;;;;23.80;15.90;;;5.40;99.90;;;;;;1951170;72;22235;-89
2022/12/14 12:27:12;;;;;;;18.70;14.30;;;5.50;99.90;;;;;;1902903;75;21130;-89
2022/12/14 12:30:07;;;;;;;19.87;14.65;;;5.50;99.90;;;;;;1894896;75;21090;-88
2022/12/14 12:33:02;;;;;;;22.50;15.38;;;5.50;99.90;;;;;;1895061;75;21067;-88
2022/12/14 12:35:57;;;;;;;21.30;15.55;;;5.70;99.90;;;;;;1888152;75;21103;-89
2022/12/14 12:39:02;;;;;;;20.50;15.50;;;5.70;99.90;;;;;;1886130;75;21081;-88
2022/12/14 12:42:01;;;;;;;22.17;15.35;;;5.80;99.90;;;;;;1894334;75;21091;-88
2022/12/14 12:44:58;;;;;;;22.95;15.83;;;5.90;99.90;;;;;;1845085;77;21121;-88
2022/12/14 12:47:53;;;;;;;22.67;16.60;;;5.90;99.90;;;;;;1883121;75;21329;-88
2022/12/14 12:53:31;;;;;;;23.00;16.90;;;6.00;99.90;;;;;;1975404;72;22186;-88
2022/12/14 12:59:06;;;;;;;24.10;17.77;;;5.90;99.90;;;;;;1949658;72;22201;-89
2022/12/14 13:02:01;;;;;;;22.90;17.10;;;5.90;99.90;;;;;;1830189;77;21164;-88
2022/12/14 13:04:55;;;;;;;22.87;17.37;;;6.00;99.90;;;;;;1900126;75;21095;-88
2022/12/14 13:07:53;;;;;;;25.70;17.23;;;6.00;99.90;;;;;;1895404;75;21051;-88
2022/12/14 13:10:47;;;;;;;24.67;17.42;;;5.90;99.90;;;;;;1894707;75;21135;-88
2022/12/14 13:13:44;;;;;;;22.80;17.57;;;5.80;99.90;;;;;;1894868;75;21114;-88
2022/12/14 13:16:38;;;;;;;23.22;16.95;;;5.80;99.90;;;;;;1897911;75;21098;-88
2022/12/14 13:19:33;;;;;;;26.75;18.02;;;5.90;99.90;;;;;;1885017;76;21105;-88
2022/12/14 13:22:29;;;;;;;24.87;17.87;;;6.10;99.90;;;;;;1916568;75;21117;-88
2022/12/14 13:25:27;;;;;;;24.55;17.25;;;6.20;99.90;;;;;;1895135;75;21168;-90
2022/12/14 13:28:29;;;;;;;;;;;6.20;99.90;;;;;;1897771;75;21151;-89
2022/12/14 13:31:27;;;;;;;22.13;16.45;;;6.30;99.90;;;;;;1917200;75;20160;-90
2022/12/14 13:34:34;;;;;;;24.50;17.23;;;6.50;99.90;;;;;;1902325;75;21047;-89
2022/12/14 13:37:41;;;;;;;20.53;16.20;;;6.50;99.90;;;;;;1917380;75;21098;-89
2022/12/14 13:41:05;;;;;;;21.00;15.78;;;6.60;99.90;;;;;;1901638;75;21110;-89
2022/12/14 13:44:23;;;;;;;21.57;15.30;;;6.80;99.90;;;;;;1903009;75;21122;-90
2022/12/14 13:47:20;;;;;;;22.07;14.87;;;7.00;99.90;;;;;;1917385;75;21164;-89
2022/12/14 13:50:23;;;;;;;19.00;14.07;;;7.10;99.90;;;;;;1884017;76;21090;-89
2022/12/14 13:53:19;;;;;;;19.45;14.95;;;7.20;99.90;;;;;;1883988;76;21148;-90
2022/12/14 13:56:13;;;;;;;20.90;16.32;;;7.40;99.90;;;;;;1884358;75;21113;-89
2022/12/14 13:59:07;;;;;;;16.85;13.68;;;7.60;99.90;;;;;;1841013;77;21196;-90
2022/12/14 14:02:01;;;;;;;19.40;14.98;;;7.70;99.90;;;;;;1843956;77;22025;-89
2022/12/14 14:05:02;;;;;;;19.52;15.13;;;7.70;99.90;;;;;;1824705;77;21116;-89
2022/12/14 14:07:56;;;;;;;21.07;15.38;;;7.60;99.90;;;;;;1826566;77;21221;-88
2022/12/14 14:10:48;;;;;;;20.20;15.83;;;7.50;99.90;;;;;;1824440;79;21138;-90
2022/12/14 14:14:05;;;;;;;24.20;16.52;;;7.20;99.90;;;;;;1848548;77;21150;-90
2022/12/14 14:17:00;;;;;;;22.52;16.35;;;7.10;99.90;;;;;;1883476;75;21106;-89
2022/12/14 14:19:55;;;;;;;23.32;16.45;;;7.00;99.90;;;;;;1883753;76;21172;-88
2022/12/14 14:23:13;;;;;;;22.13;16.75;;;7.00;99.90;;;;;;1871469;75;21168;-88
2022/12/14 14:26:29;;;;;;;21.10;16.80;;;7.00;99.90;;;;;;1887694;75;21076;-88
2022/12/14 14:29:28;;;;;;;23.90;17.37;;;6.80;99.90;;;;;;1901012;75;21282;-89
2022/12/14 14:32:34;;;;;;;23.77;18.92;;;6.70;99.90;;;;;;1873160;77;21094;-90
2022/12/14 14:35:29;;;;;;;26.62;18.70;;;6.80;99.90;;;;;;1872220;77;21165;-89
2022/12/14 14:38:25;;;;;;;23.12;18.00;;;6.80;99.90;;;;;;1893546;75;21183;-89
2022/12/14 14:41:25;;;;;;;22.40;16.00;;;6.70;99.90;;;;;;1906056;75;21056;-90
2022/12/14 14:44:17;;;;;;;;;;;6.80;99.90;;;;;;1895303;75;21107;-89
2022/12/14 14:47:24;;;;;;;22.95;16.67;;;6.80;99.90;;;;;;1871754;77;20152;-89
2022/12/14 14:50:25;;;;;;;22.35;16.73;;;6.60;99.90;;;;;;1871540;75;21180;-89
2022/12/14 14:53:36;;;;;;;22.40;17.32;;;6.60;99.90;;;;;;1894511;75;21506;-88
2022/12/14 14:56:47;;;;;;;19.95;16.32;;;6.60;99.90;;;;;;1881052;75;21048;-88
2022/12/14 14:59:45;;;;;;;20.10;15.72;;;6.60;99.90;;;;;;1901735;74;21242;-89
2022/12/14 15:02:44;;;;;;;22.27;16.40;;;6.60;99.90;;;;;;1910195;74;21184;-90
2022/12/14 15:05:38;;;;;;;20.65;15.78;;;6.60;99.90;;;;;;1910210;74;21164;-88
2022/12/14 15:11:26;;;;;;;21.30;16.05;;;6.40;99.90;;;;;;1975914;72;22154;-89
2022/12/14 15:14:27;;;;;;;20.80;16.37;;;6.30;99.90;;;;;;1905748;73;21115;-88
2022/12/14 15:17:23;;;;;;;21.37;17.20;;;6.30;99.90;;;;;;1911799;74;21097;-89
2022/12/14 15:20:25;;;;;;;24.72;17.77;;;6.30;99.90;;;;;;1947088;73;21199;-89
2022/12/14 15:23:16;;;;;;;30.48;22.62;;;6.30;99.90;;;;;;1917360;75;21162;-89
2022/12/14 15:26:15;;;;;;;29.77;21.17;;;6.20;99.90;;;;;;1904081;75;21115;-88
2022/12/14 15:29:14;;;;;;;34.38;21.87;;;6.20;99.90;;;;;;1904092;75;21106;-88
2022/12/14 15:32:06;;;;;;;32.40;22.95;;;6.10;99.90;;;;;;1904584;75;21165;-88
2022/12/14 15:35:01;;;;;;;32.85;24.02;;;6.10;99.90;;;;;;1904709;75;21170;-88
2022/12/14 15:37:59;;;;;;;35.83;24.70;;;6.10;99.90;;;;;;1904856;75;21168;-89
2022/12/14 15:40:57;;;;;;;37.65;26.12;;;6.10;99.90;;;;;;1851744;77;21122;-89
2022/12/14 15:43:51;;;;;;;34.95;25.05;;;6.00;99.90;;;;;;1851194;77;21067;-90
2022/12/14 15:46:46;;;;;;;35.05;25.48;;;6.00;99.90;;;;;;1878557;76;21080;-88
2022/12/14 15:49:38;;;;;;;32.15;23.30;;;6.00;99.90;;;;;;1870242;77;21283;-88
2022/12/14 15:52:31;;;;;;;35.75;23.70;;;6.00;99.90;;;;;;1856143;77;21313;-89
2022/12/14 15:55:32;;;;;;;35.03;23.70;;;6.00;99.90;;;;;;1870320;77;21091;-89
2022/12/14 16:01:09;;;;;;;31.40;22.40;;;5.90;99.90;;;;;;1946316;72;22642;-88
2022/12/14 16:04:05;;;;;;;32.38;22.55;;;5.90;99.90;;;;;;1906552;75;21067;-88
2022/12/14 16:07:00;;;;;;;34.03;23.10;;;5.80;99.90;;;;;;1884528;76;21109;-88
2022/12/14 16:12:43;;;;;;;32.60;22.58;;;5.70;99.90;;;;;;1954622;72;22495;-88
2022/12/14 16:15:36;;;;;;;33.10;22.80;;;5.70;99.90;;;;;;1932101;74;21113;-88
2022/12/14 16:18:28;;;;;;;33.05;22.87;;;5.60;99.90;;;;;;1887794;76;21101;-90
2022/12/14 16:21:29;;;;;;;34.60;22.25;;;5.70;99.90;;;;;;1878511;76;21067;-89
2022/12/14 16:24:25;;;;;;;31.80;22.85;;;5.60;99.90;;;;;;1858745;76;21108;-88
2022/12/14 16:27:20;;;;;;;36.48;24.25;;;5.60;99.90;;;;;;1854512;76;21421;-87
2022/12/14 16:30:21;;;;;;;34.48;24.32;;;5.60;99.90;;;;;;1911388;75;21122;-88
2022/12/14 16:33:19;;;;;;;35.10;24.07;;;5.50;99.90;;;;;;1922438;74;21043;-88
2022/12/14 16:36:14;;;;;;;32.03;23.02;;;5.50;99.90;;;;;;1887155;76;21179;-88
2022/12/14 16:39:14;;;;;;;33.00;23.15;;;5.40;99.90;;;;;;1859445;76;21114;-88
2022/12/14 16:42:20;;;;;;;32.80;24.02;;;5.40;99.90;;;;;;1899315;75;21104;-89
2022/12/14 16:45:26;;;;;;;32.58;23.65;;;5.40;99.90;;;;;;1896043;75;21121;-88
2022/12/14 16:48:21;;;;;;;29.85;21.45;;;5.40;99.90;;;;;;1900315;74;21094;-89
2022/12/14 16:54:27;;;;;;;31.77;22.20;;;5.40;99.90;;;;;;1942378;72;22721;-90
2022/12/14 16:57:22;;;;;;;28.92;21.02;;;5.40;99.90;;;;;;1894756;75;21098;-88
2022/12/14 17:00:24;;;;;;;31.48;22.73;;;5.40;99.90;;;;;;1890675;75;21129;-87
2022/12/14 17:03:23;;;;;;;30.57;20.90;;;5.30;99.90;;;;;;1873086;76;21155;-89
2022/12/14 17:06:19;;;;;;;31.33;22.22;;;5.30;99.90;;;;;;1884298;75;21079;-89
2022/12/14 17:09:17;;;;;;;31.65;21.48;;;5.30;99.90;;;;;;1883195;75;21147;-89
2022/12/14 17:12:15;;;;;;;30.08;22.98;;;5.20;99.90;;;;;;1883329;75;21160;-88
2022/12/14 17:15:07;;;;;;;32.67;22.40;;;5.20;99.90;;;;;;1905585;75;21526;-89
2022/12/14 17:18:02;;;;;;;34.92;24.65;;;5.20;99.90;;;;;;1871987;75;21120;-88
2022/12/14 17:23:39;;;;;;;34.23;23.95;;;5.20;99.90;;;;;;1947350;72;22170;-88
2022/12/14 17:26:32;;;;;;;35.58;24.60;;;5.20;99.90;;;;;;1917371;75;21164;-89
2022/12/14 17:29:27;;;;;;;35.68;24.27;;;5.20;99.90;;;;;;1862498;76;21117;-88
2022/12/14 17:32:19;;;;;;;32.95;22.55;;;5.20;99.90;;;;;;1865897;76;21082;-90
2022/12/14 17:35:16;;;;;;;37.95;25.40;;;5.20;99.90;;;;;;1928793;73;21095;-89
2022/12/14 17:38:14;;;;;;;35.98;24.00;;;5.20;99.90;;;;;;1928714;73;21092;-88
2022/12/14 17:41:06;;;;;;;38.30;24.92;;;5.20;99.90;;;;;;1928340;73;21585;-89
2022/12/14 17:43:59;;;;;;;40.92;25.62;;;5.20;99.90;;;;;;1917895;75;21172;-89
2022/12/14 17:46:51;;;;;;;33.23;23.40;;;5.20;99.90;;;;;;1929778;73;21142;-88
2022/12/14 17:49:42;;;;;;;37.08;25.25;;;5.30;99.90;;;;;;1944437;73;21113;-88
2022/12/14 17:52:34;;;;;;;37.50;25.15;;;5.30;99.90;;;;;;1917786;75;21132;-90
2022/12/14 17:55:28;;;;;;;41.88;25.80;;;5.30;99.90;;;;;;1917112;75;21212;-90
2022/12/14 17:58:20;;;;;;;39.83;25.80;;;5.30;99.90;;;;;;1917266;75;21054;-89
2022/12/14 18:01:17;;;;;;;40.88;26.90;;;5.30;99.90;;;;;;1917090;75;21574;-89
2022/12/14 18:04:12;;;;;;;42.48;27.67;;;5.30;99.90;;;;;;1917323;75;21199;-89
2022/12/14 18:07:05;;;;;;;44.42;28.20;;;5.30;99.90;;;;;;1858017;76;21098;-89
2022/12/14 18:09:57;;;;;;;43.90;27.02;;;5.30;99.90;;;;;;1950850;73;21156;-90
2022/12/14 18:12:49;;;;;;;39.30;25.40;;;5.30;99.90;;;;;;1938304;73;21066;-89
2022/12/14 18:15:44;;;;;;;37.93;26.75;;;5.30;99.90;;;;;;1917856;75;21082;-89
2022/12/14 18:18:38;;;;;;;42.03;26.68;;;5.30;99.90;;;;;;1920930;73;21114;-87
2022/12/14 18:21:30;;;;;;;42.65;27.10;;;5.30;99.90;;;;;;1932002;73;21102;-88
2022/12/14 18:24:22;;;;;;;43.55;26.30;;;5.20;99.90;;;;;;1855805;76;21120;-88
2022/12/14 18:27:15;;;;;;;42.38;26.10;;;5.20;99.90;;;;;;1843835;77;21223;-88
2022/12/14 18:30:10;;;;;;;43.63;27.52;;;5.20;99.90;;;;;;1881921;76;21154;-89
2022/12/14 18:33:01;;;;;;;39.67;26.30;;;5.10;99.90;;;;;;1875215;76;21173;-87